Time;durP1;ratioP1;P1;durP2;ratioP2;P2;SDS_P1;SDS_P2;PMS_P1;PMS_P2;Temp;Humidity;BMP_temperature;BMP_pressure;BME280_temperature;BME280_humidity;BME280_pressure;Samples;Min_cycle;Max_cycle;Signal;HPM_P1;HPM_P2
2023/10/04 00:00:21;;;;;;;3.42;1.65;;;14.70;99.90;;;;;;5072140;28;20062;-79
2023/10/04 00:02:55;;;;;;;2.05;0.90;;;14.70;99.90;;;;;;5072204;28;20071;-82
2023/10/04 00:05:24;;;;;;;2.42;1.05;;;14.70;99.90;;;;;;5088727;28;20064;-78
2023/10/04 00:07:52;;;;;;;3.25;1.00;;;14.70;99.90;;;;;;5072938;28;20056;-79
2023/10/04 00:10:18;;;;;;;2.20;0.98;;;14.70;99.90;;;;;;5072374;28;20443;-79
2023/10/04 00:12:46;;;;;;;1.90;1.20;;;14.70;99.90;;;;;;5072070;28;20074;-78
2023/10/04 00:15:13;;;;;;;3.38;1.20;;;14.70;99.90;;;;;;5072063;28;20025;-79
2023/10/04 00:17:42;;;;;;;4.07;1.38;;;14.60;99.90;;;;;;5073678;28;20029;-78
2023/10/04 00:20:16;;;;;;;2.05;0.93;;;14.60;99.90;;;;;;5073017;28;20465;-79
2023/10/04 00:22:48;;;;;;;2.97;1.13;;;14.60;99.90;;;;;;5073467;28;20067;-78
2023/10/04 00:25:21;;;;;;;2.95;1.02;;;14.60;99.90;;;;;;5073286;28;20020;-79
2023/10/04 00:27:52;;;;;;;3.20;1.35;;;14.60;99.90;;;;;;5072154;28;20024;-93
2023/10/04 00:30:18;;;;;;;5.15;1.13;;;14.60;99.90;;;;;;5073662;28;20027;-79
2023/10/04 00:32:47;;;;;;;6.05;1.60;;;14.60;99.90;;;;;;5071953;28;20025;-79
2023/10/04 00:35:17;;;;;;;4.55;1.20;;;14.60;99.90;;;;;;5072299;28;20426;-78
2023/10/04 00:37:46;;;;;;;2.40;1.15;;;14.60;99.90;;;;;;5071926;28;20048;-78
2023/10/04 00:40:15;;;;;;;3.50;1.10;;;14.60;99.90;;;;;;5071815;28;20055;-79
2023/10/04 00:42:41;;;;;;;3.72;1.33;;;14.50;99.90;;;;;;5072114;28;20098;-78
2023/10/04 00:45:09;;;;;;;3.25;1.27;;;14.50;99.90;;;;;;5071150;28;20528;-78
2023/10/04 00:47:35;;;;;;;2.20;1.20;;;14.50;99.90;;;;;;5073072;28;20028;-78
2023/10/04 00:50:14;;;;;;;4.50;1.08;;;14.50;99.90;;;;;;5071461;28;20032;-78
2023/10/04 00:52:46;;;;;;;6.43;1.17;;;14.50;99.90;;;;;;5073123;28;20025;-79
2023/10/04 00:55:17;;;;;;;2.85;1.10;;;14.50;99.90;;;;;;5071825;28;20025;-78
2023/10/04 00:57:43;;;;;;;3.65;1.25;;;14.50;99.90;;;;;;5071973;28;20021;-78
2023/10/04 01:00:10;;;;;;;2.95;1.10;;;14.40;99.90;;;;;;5071646;28;20043;-79
2023/10/04 01:02:37;;;;;;;4.13;1.27;;;14.50;99.90;;;;;;5071898;28;20039;-78
2023/10/04 01:05:04;;;;;;;1.98;1.10;;;14.50;99.90;;;;;;5071179;28;20032;-78
2023/10/04 01:07:31;;;;;;;3.05;1.10;;;14.50;99.90;;;;;;5071849;28;20127;-79
2023/10/04 01:09:56;;;;;;;5.25;2.20;;;14.50;99.90;;;;;;5071545;28;20021;-79
2023/10/04 01:12:23;;;;;;;3.53;1.35;;;14.50;99.90;;;;;;5071665;28;20035;-78
2023/10/04 01:14:49;;;;;;;2.33;0.98;;;14.50;99.90;;;;;;5072800;28;20024;-79
2023/10/04 01:17:17;;;;;;;3.45;1.50;;;14.40;99.90;;;;;;5073560;28;20062;-79
2023/10/04 01:19:43;;;;;;;3.08;1.30;;;14.50;99.90;;;;;;5075411;28;20362;-79
2023/10/04 01:22:09;;;;;;;4.50;1.50;;;14.50;99.90;;;;;;5091475;28;20032;-79
2023/10/04 01:24:38;;;;;;;5.97;1.30;;;14.50;99.90;;;;;;5076564;28;20028;-78
2023/10/04 01:27:04;;;;;;;5.07;1.48;;;14.50;99.90;;;;;;5075530;28;20024;-77
2023/10/04 01:29:30;;;;;;;2.53;1.02;;;14.50;99.90;;;;;;5076064;28;20020;-77
2023/10/04 01:31:57;;;;;;;7.03;1.55;;;14.40;99.90;;;;;;5074646;28;20032;-78
2023/10/04 01:34:23;;;;;;;2.65;1.27;;;14.40;99.90;;;;;;5076183;28;20037;-77
2023/10/04 01:36:49;;;;;;;2.30;1.10;;;14.40;99.90;;;;;;5091913;28;20035;-78
2023/10/04 01:39:19;;;;;;;4.30;1.52;;;14.40;99.90;;;;;;5075655;28;20025;-78
2023/10/04 01:41:45;;;;;;;3.38;1.10;;;14.40;99.90;;;;;;5074782;28;20031;-77
2023/10/04 01:44:11;;;;;;;2.88;1.00;;;14.40;99.90;;;;;;5074172;28;20036;-77
2023/10/04 01:46:38;;;;;;;5.05;1.05;;;14.40;99.90;;;;;;5074725;28;20465;-78
2023/10/04 01:49:07;;;;;;;3.42;1.10;;;14.40;99.90;;;;;;5075456;28;20111;-78
2023/10/04 01:51:33;;;;;;;2.88;1.33;;;14.30;99.90;;;;;;5074631;28;20032;-77
2023/10/04 01:53:59;;;;;;;4.00;1.42;;;14.30;99.90;;;;;;5074166;28;20028;-78
2023/10/04 01:56:25;;;;;;;3.67;1.58;;;14.30;99.90;;;;;;5075851;28;20457;-77
2023/10/04 01:58:51;;;;;;;5.35;1.38;;;14.30;99.90;;;;;;5074175;28;20036;-78
2023/10/04 02:01:17;;;;;;;4.00;1.27;;;14.30;99.90;;;;;;5074168;28;20469;-78
2023/10/04 02:03:42;;;;;;;3.72;1.92;;;14.30;99.90;;;;;;5074621;28;20078;-80
2023/10/04 02:06:09;;;;;;;2.80;1.33;;;14.30;99.90;;;;;;5090886;28;20025;-78
2023/10/04 02:08:34;;;;;;;3.72;1.40;;;14.30;99.90;;;;;;5074560;28;20020;-78
2023/10/04 02:11:03;;;;;;;3.50;1.42;;;14.20;99.90;;;;;;5090749;28;20519;-79
2023/10/04 02:13:29;;;;;;;6.05;1.42;;;14.20;99.90;;;;;;5074552;28;20078;-79
2023/10/04 02:15:55;;;;;;;3.95;1.42;;;14.20;99.90;;;;;;5073693;28;20040;-79
2023/10/04 02:18:22;;;;;;;3.50;1.20;;;14.20;99.90;;;;;;5075343;28;20139;-78
2023/10/04 02:20:53;;;;;;;3.00;1.25;;;14.10;99.90;;;;;;5074328;28;20381;-79
2023/10/04 02:23:19;;;;;;;5.10;1.23;;;14.10;99.90;;;;;;5073674;28;20386;-80
2023/10/04 02:25:48;;;;;;;5.15;1.33;;;14.10;99.90;;;;;;5073981;28;20036;-79
2023/10/04 02:28:23;;;;;;;2.50;1.30;;;14.20;99.90;;;;;;5072636;28;20036;-79
2023/10/04 02:30:49;;;;;;;4.63;1.63;;;14.10;99.90;;;;;;5075613;28;20032;-79
2023/10/04 02:33:16;;;;;;;5.28;1.30;;;14.00;99.90;;;;;;5074806;28;20484;-80
2023/10/04 02:35:46;;;;;;;3.85;1.40;;;14.10;99.90;;;;;;5074248;28;20028;-79
2023/10/04 02:38:33;;;;;;;3.63;1.63;;;14.10;99.90;;;;;;5073771;28;20024;-80
2023/10/04 02:41:00;;;;;;;6.00;1.33;;;14.00;99.90;;;;;;5074919;28;20028;-81
2023/10/04 02:43:26;;;;;;;4.38;1.33;;;14.00;99.90;;;;;;5074121;28;20024;-79
2023/10/04 02:45:53;;;;;;;3.40;1.15;;;14.00;99.90;;;;;;5073907;28;20120;-79
2023/10/04 02:48:19;;;;;;;3.45;1.30;;;13.90;99.90;;;;;;5073418;28;20062;-80
2023/10/04 02:50:46;;;;;;;5.00;1.23;;;13.90;99.90;;;;;;5073801;28;20057;-78
2023/10/04 02:53:13;;;;;;;2.13;1.13;;;13.90;99.90;;;;;;5073317;28;20035;-79
2023/10/04 02:55:40;;;;;;;4.20;1.60;;;13.80;99.90;;;;;;5074765;28;20059;-79
2023/10/04 02:58:06;;;;;;;4.47;1.35;;;13.80;99.90;;;;;;5074524;28;20024;-80
2023/10/04 03:00:33;;;;;;;2.85;1.48;;;13.80;99.90;;;;;;5073562;28;20028;-79
2023/10/04 03:02:59;;;;;;;3.80;1.42;;;13.80;99.90;;;;;;5074289;28;20102;-80
2023/10/04 03:05:28;;;;;;;4.25;1.27;;;13.70;99.90;;;;;;5073545;28;20025;-79
2023/10/04 03:07:54;;;;;;;2.42;1.27;;;13.70;99.90;;;;;;5073725;28;20025;-79
2023/10/04 03:10:25;;;;;;;3.92;1.20;;;13.70;99.90;;;;;;5074125;28;20070;-79
2023/10/04 03:12:56;;;;;;;3.40;1.52;;;13.70;99.90;;;;;;5074564;28;20029;-79
2023/10/04 03:15:23;;;;;;;4.17;1.23;;;13.60;99.90;;;;;;5072918;28;20025;-79
2023/10/04 03:17:52;;;;;;;4.50;1.42;;;13.50;99.90;;;;;;5073458;28;20280;-78
2023/10/04 03:20:29;;;;;;;5.63;1.45;;;13.50;99.90;;;;;;5072535;28;20094;-78
2023/10/04 03:22:59;;;;;;;2.58;1.17;;;13.50;99.90;;;;;;5073060;28;20489;-78
2023/10/04 03:25:26;;;;;;;4.28;1.42;;;13.50;99.90;;;;;;5072905;28;20031;-78
2023/10/04 03:27:54;;;;;;;2.83;1.50;;;13.50;99.90;;;;;;5074054;28;20017;-78
2023/10/04 03:30:20;;;;;;;2.85;1.10;;;13.50;99.90;;;;;;5072581;28;20028;-78
2023/10/04 03:32:53;;;;;;;4.55;1.55;;;13.50;99.90;;;;;;5074151;28;20036;-79
2023/10/04 03:35:22;;;;;;;4.97;1.60;;;13.50;99.90;;;;;;5072327;28;20293;-78
2023/10/04 03:37:54;;;;;;;2.97;1.35;;;13.40;99.90;;;;;;5072643;28;20457;-78
2023/10/04 03:40:21;;;;;;;3.65;1.23;;;13.40;99.90;;;;;;5072343;28;20039;-79
2023/10/04 03:42:46;;;;;;;3.13;1.60;;;13.40;99.90;;;;;;5072990;28;20033;-79
2023/10/04 03:45:17;;;;;;;4.65;1.45;;;13.40;99.90;;;;;;5072041;28;20035;-79
2023/10/04 03:47:44;;;;;;;3.92;1.50;;;13.30;99.90;;;;;;5074041;28;20033;-79
2023/10/04 03:50:11;;;;;;;2.90;1.35;;;13.30;99.90;;;;;;5072239;28;20090;-79
2023/10/04 03:52:38;;;;;;;4.28;1.73;;;13.20;99.90;;;;;;5072527;28;20481;-79
2023/10/04 03:55:06;;;;;;;6.40;1.50;;;13.30;99.90;;;;;;5072114;28;20102;-78
2023/10/04 03:57:33;;;;;;;6.55;1.60;;;13.20;99.90;;;;;;5072279;28;20116;-78
2023/10/04 04:00:17;;;;;;;4.10;1.50;;;13.20;99.90;;;;;;5072282;28;20032;-78
2023/10/04 04:02:43;;;;;;;2.97;1.60;;;13.20;99.90;;;;;;5072445;28;20028;-78
2023/10/04 04:05:11;;;;;;;4.80;1.80;;;13.10;99.90;;;;;;5073130;28;20025;-79
2023/10/04 04:07:37;;;;;;;5.15;2.15;;;13.10;99.90;;;;;;5072406;28;20029;-78
2023/10/04 04:10:03;;;;;;;4.00;1.52;;;13.10;99.90;;;;;;5071803;28;20538;-80
2023/10/04 04:12:29;;;;;;;4.78;1.50;;;13.10;99.90;;;;;;5089310;28;20397;-79
2023/10/04 04:14:55;;;;;;;4.30;1.65;;;13.00;99.90;;;;;;5072256;28;20492;-79
2023/10/04 04:17:24;;;;;;;5.05;1.55;;;13.00;99.90;;;;;;5073089;28;20040;-79
2023/10/04 04:19:49;;;;;;;5.07;1.52;;;13.00;99.90;;;;;;5072532;28;20036;-79
2023/10/04 04:22:23;;;;;;;4.30;1.60;;;13.10;99.90;;;;;;5072975;28;20028;-79
2023/10/04 04:24:50;;;;;;;5.32;1.70;;;13.00;99.90;;;;;;5072187;28;20033;-78
2023/10/04 04:27:21;;;;;;;4.97;1.48;;;13.00;99.90;;;;;;5072497;28;20074;-78
2023/10/04 04:29:48;;;;;;;2.67;1.40;;;13.00;99.90;;;;;;5073295;28;20021;-78
2023/10/04 04:32:15;;;;;;;6.03;1.98;;;13.00;99.90;;;;;;5071600;28;20029;-79
2023/10/04 04:34:42;;;;;;;4.13;1.92;;;13.00;99.90;;;;;;5071804;28;20094;-78
2023/10/04 04:37:08;;;;;;;7.30;1.67;;;12.90;99.90;;;;;;5072744;28;20021;-78
2023/10/04 04:39:34;;;;;;;3.30;1.42;;;12.90;99.90;;;;;;5073108;28;20473;-78
2023/10/04 04:42:00;;;;;;;5.07;1.90;;;12.90;99.90;;;;;;5071650;28;20059;-78
2023/10/04 04:44:33;;;;;;;4.60;1.80;;;12.80;99.90;;;;;;5072622;28;20033;-78
2023/10/04 04:46:59;;;;;;;3.40;1.63;;;12.90;99.90;;;;;;5088644;28;20033;-77
2023/10/04 04:49:25;;;;;;;3.47;1.52;;;12.80;99.90;;;;;;5071274;28;20028;-78
2023/10/04 04:51:50;;;;;;;3.13;1.45;;;12.80;99.90;;;;;;5090212;28;20060;-78
2023/10/04 04:54:18;;;;;;;3.58;1.50;;;12.80;99.90;;;;;;5076343;28;20027;-78
2023/10/04 04:56:44;;;;;;;5.07;1.77;;;12.80;99.90;;;;;;5093031;28;20067;-77
2023/10/04 04:59:09;;;;;;;4.63;1.60;;;12.80;99.90;;;;;;5075634;28;20412;-79
2023/10/04 05:01:38;;;;;;;4.03;1.65;;;12.80;99.90;;;;;;5075782;28;20032;-78
2023/10/04 05:04:06;;;;;;;3.08;1.63;;;12.80;99.90;;;;;;5076438;28;20058;-84
2023/10/04 05:06:32;;;;;;;4.20;1.77;;;12.80;99.90;;;;;;5077079;28;20028;-79
2023/10/04 05:08:58;;;;;;;3.40;1.50;;;12.70;99.90;;;;;;5075710;28;20066;-78
2023/10/04 05:11:24;;;;;;;3.88;1.60;;;12.70;99.90;;;;;;5075896;28;20107;-78
2023/10/04 05:13:56;;;;;;;5.13;1.45;;;12.80;99.90;;;;;;5075356;28;20051;-78
2023/10/04 05:16:22;;;;;;;3.75;2.33;;;12.80;99.90;;;;;;5076526;28;20035;-78
2023/10/04 05:18:48;;;;;;;5.78;1.73;;;12.80;99.90;;;;;;5075595;28;20033;-79
2023/10/04 05:21:14;;;;;;;7.07;2.08;;;12.80;99.90;;;;;;5074733;28;20095;-79
2023/10/04 05:23:40;;;;;;;8.15;2.05;;;12.80;99.90;;;;;;5075421;28;20055;-79
2023/10/04 05:26:08;;;;;;;4.75;1.58;;;12.70;99.90;;;;;;5075185;28;20533;-82
2023/10/04 05:28:35;;;;;;;4.25;1.80;;;12.70;99.90;;;;;;5075388;28;20059;-79
2023/10/04 05:31:00;;;;;;;2.33;1.63;;;12.70;99.90;;;;;;5076674;28;20108;-79
2023/10/04 05:33:26;;;;;;;3.90;1.63;;;12.70;99.90;;;;;;5074414;28;20079;-79
2023/10/04 05:35:55;;;;;;;6.15;1.73;;;12.70;99.90;;;;;;5076353;28;20025;-79
2023/10/04 05:38:22;;;;;;;3.13;1.70;;;12.60;99.90;;;;;;5074809;28;20025;-79
2023/10/04 05:40:48;;;;;;;4.63;1.63;;;12.70;99.90;;;;;;5075380;28;20040;-79
2023/10/04 05:43:15;;;;;;;5.65;1.77;;;12.70;99.90;;;;;;5074518;28;20025;-79
2023/10/04 05:45:42;;;;;;;3.65;1.50;;;12.70;99.90;;;;;;5074885;28;20028;-79
2023/10/04 05:48:09;;;;;;;3.80;1.55;;;12.70;99.90;;;;;;5074535;28;20029;-80
2023/10/04 05:50:35;;;;;;;3.47;1.63;;;12.70;99.90;;;;;;5074971;28;20032;-78
2023/10/04 05:53:07;;;;;;;2.95;1.55;;;12.70;99.90;;;;;;5074952;28;20453;-79
2023/10/04 05:55:37;;;;;;;8.00;1.80;;;12.70;99.90;;;;;;5075241;28;20082;-78
2023/10/04 05:58:07;;;;;;;5.97;1.80;;;12.70;99.90;;;;;;5074728;28;20586;-78
2023/10/04 06:00:34;;;;;;;2.97;1.52;;;12.70;99.90;;;;;;5074656;28;20033;-78
2023/10/04 06:03:04;;;;;;;3.90;2.03;;;12.70;99.90;;;;;;5073779;28;20036;-78
2023/10/04 06:05:31;;;;;;;9.23;1.55;;;12.70;99.90;;;;;;5074029;28;20389;-78
2023/10/04 06:07:57;;;;;;;4.85;2.10;;;12.70;99.90;;;;;;5074757;28;20028;-79
2023/10/04 06:10:27;;;;;;;4.05;1.90;;;12.80;99.90;;;;;;5075003;28;20021;-79
2023/10/04 06:12:55;;;;;;;5.82;1.80;;;12.70;99.90;;;;;;5074418;28;20029;-79
2023/10/04 06:15:21;;;;;;;3.58;1.90;;;12.80;99.90;;;;;;5075153;28;20037;-79
2023/10/04 06:17:48;;;;;;;4.35;1.67;;;12.80;99.90;;;;;;5075390;28;20032;-78
2023/10/04 06:22:59;;;;;;;4.65;2.15;;;12.80;99.90;;;;;;5074943;28;20045;-77
2023/10/04 06:25:29;;;;;;;7.55;2.47;;;12.90;99.90;;;;;;5074609;28;20032;-77
2023/10/04 06:27:56;;;;;;;7.18;2.47;;;12.80;99.90;;;;;;5075227;28;20021;-77
2023/10/04 06:30:31;;;;;;;6.38;2.60;;;12.90;99.90;;;;;;5087006;28;20039;-77
2023/10/04 06:32:59;;;;;;;4.47;2.00;;;12.90;99.90;;;;;;5093761;28;20035;-77
2023/10/04 06:35:26;;;;;;;6.03;1.90;;;12.90;99.90;;;;;;5093463;28;20121;-77
2023/10/04 06:37:54;;;;;;;3.58;1.52;;;12.90;99.90;;;;;;5095455;28;20361;-77
2023/10/04 06:40:21;;;;;;;4.05;1.88;;;12.90;99.90;;;;;;5093529;28;20093;-78
2023/10/04 06:42:48;;;;;;;4.85;1.90;;;12.90;99.90;;;;;;5087673;28;20392;-77
2023/10/04 06:45:18;;;;;;;3.50;1.70;;;12.90;99.90;;;;;;5081153;28;20507;-78
2023/10/04 06:47:45;;;;;;;5.78;1.98;;;12.90;99.90;;;;;;5093819;28;20537;-77
2023/10/04 06:50:17;;;;;;;2.88;1.83;;;13.00;99.90;;;;;;5094396;28;20496;-80
2023/10/04 06:52:44;;;;;;;4.82;1.95;;;13.00;99.90;;;;;;5094021;28;20035;-78
2023/10/04 06:55:11;;;;;;;3.90;1.75;;;13.00;99.90;;;;;;5093632;28;20081;-77
2023/10/04 06:57:37;;;;;;;6.82;1.80;;;13.00;99.90;;;;;;5110479;28;20028;-78
2023/10/04 07:00:13;;;;;;;5.55;2.20;;;13.00;99.90;;;;;;5094774;28;20067;-78
2023/10/04 07:02:40;;;;;;;6.68;2.05;;;13.10;99.90;;;;;;5089688;28;20121;-79
2023/10/04 07:05:08;;;;;;;5.88;2.03;;;13.10;99.90;;;;;;5094881;28;20036;-80
2023/10/04 07:07:34;;;;;;;5.78;1.80;;;13.10;99.90;;;;;;5093009;28;20063;-79
2023/10/04 07:09:59;;;;;;;4.95;2.00;;;13.20;99.90;;;;;;5093683;28;20025;-79
2023/10/04 07:12:27;;;;;;;5.97;1.98;;;13.20;99.90;;;;;;5075514;28;20021;-80
2023/10/04 07:14:53;;;;;;;4.47;1.83;;;13.20;99.90;;;;;;5074027;28;20104;-79
2023/10/04 07:17:19;;;;;;;3.92;1.77;;;13.20;99.90;;;;;;5072554;28;20082;-78
2023/10/04 07:19:45;;;;;;;5.18;1.70;;;13.30;99.90;;;;;;5073096;28;20037;-78
2023/10/04 07:22:10;;;;;;;3.80;1.50;;;13.30;99.90;;;;;;5090164;28;20038;-78
2023/10/04 07:24:37;;;;;;;8.52;2.10;;;13.40;99.90;;;;;;5093078;28;20392;-81
2023/10/04 07:27:03;;;;;;;5.50;1.75;;;13.40;99.90;;;;;;5093607;28;20035;-82
2023/10/04 07:29:29;;;;;;;7.65;2.00;;;13.40;99.90;;;;;;5077874;28;20024;-79
2023/10/04 07:31:56;;;;;;;5.47;1.90;;;13.50;99.90;;;;;;5053316;28;20119;-78
2023/10/04 07:34:24;;;;;;;6.47;1.80;;;13.50;99.90;;;;;;5059551;28;20482;-80
2023/10/04 07:36:51;;;;;;;6.50;1.92;;;13.50;99.90;;;;;;5072642;28;20028;-82
2023/10/04 07:39:20;;;;;;;5.40;2.45;;;13.60;99.90;;;;;;5073604;28;20373;-78
2023/10/04 07:41:46;;;;;;;6.75;2.03;;;13.60;99.90;;;;;;5072434;28;20571;-79
2023/10/04 07:44:11;;;;;;;5.65;2.00;;;13.60;99.90;;;;;;5075923;28;20028;-76
2023/10/04 07:46:37;;;;;;;7.85;1.92;;;13.70;99.90;;;;;;5073693;28;20351;-78
2023/10/04 07:49:03;;;;;;;4.70;1.70;;;13.70;99.90;;;;;;5071488;28;20529;-77
2023/10/04 07:51:29;;;;;;;6.32;1.80;;;13.80;99.90;;;;;;5075181;28;20029;-77
2023/10/04 07:53:54;;;;;;;6.90;1.63;;;13.80;99.90;;;;;;5056476;28;20036;-79
2023/10/04 07:56:20;;;;;;;4.30;1.73;;;13.80;99.90;;;;;;5080832;28;20476;-81
2023/10/04 07:58:46;;;;;;;8.52;2.10;;;13.90;99.90;;;;;;5079517;28;20403;-81
2023/10/04 08:01:14;;;;;;;5.53;1.70;;;13.90;99.90;;;;;;5074831;28;20389;-79
2023/10/04 08:03:39;;;;;;;2.88;1.50;;;13.90;99.90;;;;;;5073567;28;20513;-80
2023/10/04 08:06:10;;;;;;;3.47;1.92;;;14.00;99.90;;;;;;5085158;28;20055;-80
2023/10/04 08:08:36;;;;;;;7.30;1.70;;;14.00;99.90;;;;;;5052203;28;20031;-82
2023/10/04 08:11:06;;;;;;;4.25;2.15;;;14.10;99.90;;;;;;5062233;28;20119;-75
2023/10/04 08:13:32;;;;;;;3.50;1.55;;;14.10;99.90;;;;;;5065483;28;20074;-78
2023/10/04 08:16:01;;;;;;;5.20;1.58;;;14.20;99.90;;;;;;5071090;28;20034;-78
2023/10/04 08:18:28;;;;;;;5.18;1.60;;;14.20;99.90;;;;;;5073702;28;20028;-78
2023/10/04 08:20:53;;;;;;;6.88;1.42;;;14.20;99.90;;;;;;5073466;28;20116;-77
2023/10/04 08:23:21;;;;;;;3.88;1.25;;;14.20;99.90;;;;;;5071856;28;20096;-76
2023/10/04 08:25:49;;;;;;;2.90;1.30;;;14.30;99.90;;;;;;5071420;28;20028;-77
2023/10/04 08:28:15;;;;;;;5.50;1.27;;;14.30;99.90;;;;;;5071012;28;20025;-81
2023/10/04 08:30:41;;;;;;;4.40;1.58;;;14.40;99.90;;;;;;5072138;28;20508;-77
2023/10/04 08:33:08;;;;;;;7.53;1.50;;;14.40;99.90;;;;;;5071436;28;20383;-77
2023/10/04 08:35:36;;;;;;;6.38;1.58;;;14.40;99.90;;;;;;5072794;28;20489;-76
2023/10/04 08:38:04;;;;;;;4.63;1.63;;;14.50;99.90;;;;;;5073032;28;20025;-77
2023/10/04 08:40:30;;;;;;;4.30;1.25;;;14.60;99.90;;;;;;5071434;28;20036;-77
2023/10/04 08:42:58;;;;;;;6.97;2.10;;;14.60;99.90;;;;;;5071664;28;20094;-77
2023/10/04 08:45:27;;;;;;;4.93;1.30;;;14.60;99.90;;;;;;5071284;28;20025;-76
2023/10/04 08:47:57;;;;;;;4.03;1.48;;;14.70;99.90;;;;;;5073233;28;20029;-77
2023/10/04 08:50:49;;;;;;;3.90;1.48;;;14.70;99.90;;;;;;5071723;28;20457;-78
2023/10/04 08:53:47;;;;;;;4.63;1.40;;;14.80;99.90;;;;;;5071832;28;20028;-77
2023/10/04 08:56:17;;;;;;;2.67;1.17;;;14.90;99.90;;;;;;5071838;28;20029;-78
2023/10/04 08:58:44;;;;;;;5.90;1.10;;;14.90;99.90;;;;;;5073481;28;20028;-78
2023/10/04 09:01:11;;;;;;;3.55;1.50;;;15.00;99.90;;;;;;5073231;28;20021;-78
2023/10/04 09:03:39;;;;;;;7.65;1.67;;;15.00;99.90;;;;;;5071156;28;20131;-78
2023/10/04 09:06:05;;;;;;;7.00;1.30;;;15.10;99.90;;;;;;5071763;28;20025;-77
2023/10/04 09:08:31;;;;;;;6.22;1.52;;;15.00;99.90;;;;;;5071403;28;20043;-78
2023/10/04 09:10:58;;;;;;;3.38;1.13;;;15.10;99.90;;;;;;5072147;28;20082;-78
2023/10/04 09:13:24;;;;;;;5.07;0.95;;;15.20;99.90;;;;;;5071260;28;20031;-78
2023/10/04 09:15:50;;;;;;;3.40;1.00;;;15.20;99.90;;;;;;5071463;28;20033;-78
2023/10/04 09:18:26;;;;;;;2.45;0.73;;;15.20;99.90;;;;;;5071784;28;20028;-79
2023/10/04 09:20:52;;;;;;;6.07;1.33;;;15.30;99.90;;;;;;5072948;28;20016;-78
2023/10/04 09:23:22;;;;;;;6.38;1.20;;;15.30;99.90;;;;;;5071147;28;20097;-86
2023/10/04 09:25:48;;;;;;;5.22;1.42;;;15.30;99.90;;;;;;5071986;28;20028;-78
2023/10/04 09:28:14;;;;;;;5.18;1.30;;;15.40;99.90;;;;;;5072895;28;20021;-77
2023/10/04 09:30:40;;;;;;;3.80;1.90;;;15.40;99.90;;;;;;5071139;28;20032;-77
2023/10/04 09:33:23;;;;;;;3.28;1.10;;;15.40;99.90;;;;;;5072616;28;20052;-77
2023/10/04 09:35:49;;;;;;;4.32;1.23;;;15.40;99.90;;;;;;5073183;28;20032;-78
2023/10/04 09:38:16;;;;;;;7.65;1.52;;;15.40;99.90;;;;;;5073302;28;20042;-78
2023/10/04 09:40:52;;;;;;;4.45;1.27;;;15.50;99.90;;;;;;5074632;28;20024;-79
2023/10/04 09:43:18;;;;;;;7.68;1.27;;;15.50;99.90;;;;;;5075984;28;20105;-78
2023/10/04 09:45:56;;;;;;;7.53;1.85;;;15.50;99.90;;;;;;5074916;28;20123;-78
2023/10/04 09:48:24;;;;;;;5.28;1.48;;;15.60;99.90;;;;;;5075785;28;20503;-78
2023/10/04 09:50:50;;;;;;;7.55;1.48;;;15.60;99.90;;;;;;5074815;28;20466;-77
2023/10/04 09:53:16;;;;;;;5.32;1.45;;;15.60;99.90;;;;;;5074920;28;20055;-78
2023/10/04 09:55:43;;;;;;;3.10;1.10;;;15.70;99.90;;;;;;5075755;28;20025;-78
2023/10/04 09:58:11;;;;;;;5.65;2.25;;;15.70;99.90;;;;;;5076865;28;20025;-77
2023/10/04 10:00:38;;;;;;;4.75;1.27;;;15.80;99.90;;;;;;5074147;28;20048;-77
2023/10/04 10:03:08;;;;;;;7.10;1.48;;;15.80;99.90;;;;;;5074708;28;20119;-77
2023/10/04 10:05:36;;;;;;;4.55;1.08;;;15.90;99.90;;;;;;5074246;28;20024;-78
2023/10/04 10:08:06;;;;;;;2.25;0.90;;;15.90;99.90;;;;;;5074517;28;20421;-77
2023/10/04 10:10:34;;;;;;;3.53;0.98;;;16.00;99.90;;;;;;5074079;28;20024;-78
2023/10/04 10:13:01;;;;;;;3.72;1.08;;;16.10;99.90;;;;;;5075597;28;20450;-78
2023/10/04 10:15:27;;;;;;;3.05;1.42;;;16.10;99.90;;;;;;5074057;28;20020;-78
2023/10/04 10:17:53;;;;;;;4.45;1.08;;;16.10;99.90;;;;;;5074749;28;20173;-78
2023/10/04 10:20:19;;;;;;;3.55;0.70;;;16.20;99.90;;;;;;5074354;28;20374;-77
2023/10/04 10:23:00;;;;;;;4.45;0.90;;;16.20;99.90;;;;;;5073859;28;20054;-78
2023/10/04 10:25:37;;;;;;;2.88;0.90;;;16.20;99.90;;;;;;5073760;28;20052;-79
2023/10/04 10:28:04;;;;;;;3.28;0.82;;;16.30;99.90;;;;;;5074351;28;20042;-77
2023/10/04 10:30:33;;;;;;;3.22;0.90;;;16.30;99.90;;;;;;5073706;28;20025;-78
2023/10/04 10:32:59;;;;;;;6.43;1.50;;;16.30;99.90;;;;;;5075046;28;20126;-77
2023/10/04 10:35:53;;;;;;;3.28;1.15;;;16.40;99.90;;;;;;5073780;28;20048;-78
2023/10/04 10:38:51;;;;;;;3.35;0.73;;;16.40;99.90;;;;;;5074374;28;20024;-78
2023/10/04 10:41:30;;;;;;;5.22;0.80;;;16.50;99.90;;;;;;5040760;28;20090;-78
2023/10/04 10:44:14;;;;;;;2.15;0.80;;;16.60;99.90;;;;;;5073964;28;20119;-78
2023/10/04 10:46:59;;;;;;;3.83;1.00;;;16.60;99.90;;;;;;5073537;28;20032;-78
2023/10/04 10:49:50;;;;;;;4.50;0.95;;;16.70;99.90;;;;;;5072655;28;20036;-79
2023/10/04 10:52:38;;;;;;;4.88;1.00;;;16.80;99.90;;;;;;5074788;28;20038;-78
2023/10/04 10:55:07;;;;;;;2.90;0.95;;;17.00;99.90;;;;;;5075320;28;20407;-78
2023/10/04 10:57:36;;;;;;;2.53;0.80;;;17.10;99.90;;;;;;5073249;28;20067;-78
2023/10/04 11:00:14;;;;;;;5.75;0.80;;;17.20;99.90;;;;;;5074809;28;20052;-77
2023/10/04 11:02:39;;;;;;;4.82;0.80;;;17.30;99.90;;;;;;5074406;28;20033;-78
2023/10/04 11:05:06;;;;;;;3.03;0.80;;;17.40;99.90;;;;;;5073640;28;20028;-78
2023/10/04 11:07:32;;;;;;;4.93;1.10;;;17.60;99.90;;;;;;5073106;28;20082;-78
2023/10/04 11:09:59;;;;;;;3.60;0.60;;;17.60;99.90;;;;;;5073585;28;20024;-78
2023/10/04 11:12:25;;;;;;;4.43;0.80;;;17.70;99.90;;;;;;5073088;28;20119;-90
2023/10/04 11:14:51;;;;;;;5.63;0.93;;;17.60;99.90;;;;;;5073638;28;20020;-77
2023/10/04 11:17:20;;;;;;;3.30;0.65;;;17.60;99.90;;;;;;5074487;28;20033;-78
2023/10/04 11:19:46;;;;;;;5.05;0.95;;;17.60;99.90;;;;;;5072873;28;20036;-78
2023/10/04 11:22:14;;;;;;;5.25;0.73;;;17.60;99.90;;;;;;5074340;28;20158;-78
2023/10/04 11:24:40;;;;;;;3.33;0.90;;;17.60;99.90;;;;;;5072673;28;20032;-77
2023/10/04 11:27:07;;;;;;;4.80;0.63;;;17.50;99.90;;;;;;5072980;28;20027;-77
2023/10/04 11:29:34;;;;;;;5.45;1.02;;;17.40;99.90;;;;;;5072457;28;20074;-77
2023/10/04 11:32:00;;;;;;;5.88;0.73;;;17.40;99.90;;;;;;5072673;28;20442;-77
2023/10/04 11:34:26;;;;;;;6.50;1.20;;;17.40;99.90;;;;;;5071870;28;20087;-79
2023/10/04 11:36:59;;;;;;;2.67;0.50;;;17.50;99.90;;;;;;5072989;28;20047;-78
2023/10/04 11:39:35;;;;;;;2.17;0.60;;;17.50;99.90;;;;;;5074063;28;20028;-77
2023/10/04 11:42:02;;;;;;;1.48;0.50;;;17.50;99.80;;;;;;5073037;28;20060;-77
2023/10/04 11:44:29;;;;;;;5.65;0.82;;;17.60;99.90;;;;;;5072247;28;20078;-78
2023/10/04 11:46:55;;;;;;;2.55;0.80;;;17.60;99.90;;;;;;5072211;28;20040;-77
2023/10/04 11:49:21;;;;;;;4.40;0.68;;;17.70;99.90;;;;;;5073720;28;20047;-77
2023/10/04 11:51:50;;;;;;;5.03;0.70;;;17.70;99.90;;;;;;5071871;28;20450;-77
2023/10/04 11:54:16;;;;;;;2.42;0.73;;;17.80;99.90;;;;;;5073648;28;20051;-77
2023/10/04 11:56:42;;;;;;;3.75;0.85;;;17.80;99.90;;;;;;5071993;28;20040;-78
2023/10/04 11:59:08;;;;;;;2.15;0.63;;;17.90;99.90;;;;;;5069071;28;20029;-85
2023/10/04 12:01:47;;;;;;;1.60;0.60;;;17.90;99.90;;;;;;5063469;28;20031;-79
2023/10/04 12:04:14;;;;;;;2.95;0.93;;;18.00;99.90;;;;;;5072567;28;20538;-78
2023/10/04 12:06:40;;;;;;;4.85;0.80;;;18.10;99.90;;;;;;5073811;28;20031;-78
2023/10/04 12:09:07;;;;;;;3.90;0.88;;;18.20;99.90;;;;;;5071019;28;20028;-79
2023/10/04 12:11:35;;;;;;;3.72;0.68;;;18.30;99.90;;;;;;5071670;28;20024;-78
2023/10/04 12:14:05;;;;;;;2.33;0.80;;;18.50;99.80;;;;;;5072028;28;20020;-78
2023/10/04 12:16:37;;;;;;;4.45;0.93;;;18.70;99.20;;;;;;5071805;28;20033;-79
2023/10/04 12:19:03;;;;;;;6.18;2.15;;;18.90;99.20;;;;;;5071667;28;20028;-79
2023/10/04 12:21:29;;;;;;;4.57;0.90;;;19.10;98.50;;;;;;5071166;28;20032;-79
2023/10/04 12:23:56;;;;;;;5.53;1.08;;;19.20;98.20;;;;;;5072256;28;20067;-78
2023/10/04 12:26:23;;;;;;;2.85;0.95;;;19.40;98.30;;;;;;5071893;28;20063;-78
2023/10/04 12:28:50;;;;;;;4.18;0.90;;;19.50;97.40;;;;;;5071235;28;20024;-78
2023/10/04 12:31:15;;;;;;;2.15;0.60;;;19.50;97.40;;;;;;5071510;28;20064;-79
2023/10/04 12:33:41;;;;;;;2.25;0.65;;;19.60;96.20;;;;;;5071319;28;20083;-79
2023/10/04 12:36:07;;;;;;;3.85;0.70;;;19.70;96.00;;;;;;5073170;28;20028;-78
2023/10/04 12:38:34;;;;;;;3.63;0.75;;;19.80;95.10;;;;;;5071826;28;20082;-79
2023/10/04 12:41:00;;;;;;;3.45;0.77;;;20.00;95.40;;;;;;5071473;28;20025;-78
2023/10/04 12:43:25;;;;;;;3.08;0.90;;;20.10;95.20;;;;;;5072066;28;20123;-79
2023/10/04 12:45:54;;;;;;;3.47;0.60;;;20.30;94.90;;;;;;5073110;28;20094;-79
2023/10/04 12:48:23;;;;;;;4.75;0.80;;;20.50;94.40;;;;;;5072689;28;20053;-79
2023/10/04 12:50:51;;;;;;;4.18;0.60;;;20.80;94.40;;;;;;5071521;28;20033;-81
2023/10/04 12:53:18;;;;;;;4.68;0.98;;;21.10;94.20;;;;;;5072475;28;20079;-78
2023/10/04 12:55:48;;;;;;;2.88;0.57;;;21.20;93.60;;;;;;5067643;28;20032;-80